Pagrindinis puslapis
METAR-TAF:

METAR-TAF

Oro uostai :

Madridas, Ispanija

platuma: 40-27N, ilguma: 003-33W, Aukštis: 609 m

Dabartinis oras

Ataskaita buvo paskelbta 33 minutes, ne 04:30 UTC
Vėjas 1 kt iš Šiaurės/Šiaurės Vakarų
Temperatūra 15°C
Drėgmė 72%
Slėgis 1021 hPa
Matomumas 10 km arba daugiau
nėra debesų žemiau 1500 m ir nėra kamuolinių lietaus debesų

METAR: LEMD 250430Z 34001KT CAVOK 15/10 Q1021 NOSIG

Laikas: 07:03 (05:03 UTC)

Prognozė

Ataskaita buvo paskelbta 6 valandos ir 3 minutes, ne 23:00 UTC
Prognozė galioja nuo 25 metu 00 UTC su 26 metu 06 UTC
Vėjas 8 kt iš Šiaurės/Šiaurės Rytų
Matomumas 10 km arba daugiau
nėra debesų žemiau 1500 m ir nėra kamuolinių lietaus debesų
Tapsmas
nuo 25 metu 12 UTC su 25 metu 14 UTC
Vėjas 8 kt iš Pietvakarių su gūsio iki 18 kt
Tapsmas
nuo 25 metu 18 UTC su 25 metu 20 UTC
Vėjas 4 kt nuo kintamojo kryptimis

TAF: LEMD 242300Z 2500/2606 02008KT CAVOK TX33/2516Z TN15/2505Z BECMG 2512/2514 23008G18KT BECMG 2518/2520 VRB04KT

Orai ataskaitas ir orų prognozės (METAR, TAF).

turimą stotys yra geltonos ir raudonos taškus žemėlapyje.

Perkelti pele per norėdami pamatyti stoties vardą.

Tada spustelėkite, norėdami matyti oro stebėjimo ir prognozės.

Norėdami pakeisti žemėlapį: spustelėkite ant žalios mygtukų su juodo kryžiaus žemyn,; žalią mygtuką su brūkšneliu, jei norite nutolinti; arba žalių rodyklių gretimoms žemėlapius.


METAR-TAF: